createdAt,value
2022-08-24T00:02:18.647Z,5.18
2022-08-24T00:04:47.084Z,5.13
2022-08-24T00:07:27.576Z,5.22
2022-08-24T00:09:57.032Z,5.30
2022-08-24T00:12:24.924Z,4.97
2022-08-24T00:14:52.368Z,5.05
2022-08-24T00:17:20.502Z,5.50
2022-08-24T00:19:48.430Z,5.20
2022-08-24T00:22:16.042Z,5.05
2022-08-24T00:24:44.224Z,5.25
2022-08-24T00:27:12.970Z,5.47
2022-08-24T00:29:40.395Z,5.50
2022-08-24T00:32:07.915Z,6.07
2022-08-24T00:34:36.457Z,5.47
2022-08-24T00:37:04.076Z,5.82
2022-08-24T00:39:31.457Z,5.60
2022-08-24T00:41:58.870Z,6.32
2022-08-24T00:44:27.657Z,6.32
2022-08-24T00:46:58.312Z,5.78
2022-08-24T00:49:29.659Z,6.43
2022-08-24T00:52:03.778Z,6.00
2022-08-24T00:54:33.495Z,6.22
2022-08-24T00:57:04.393Z,5.82
2022-08-24T00:59:37.419Z,5.93
2022-08-24T01:02:15.408Z,5.40
2022-08-24T01:04:47.582Z,5.80
2022-08-24T01:07:14.947Z,6.47
2022-08-24T01:09:42.340Z,6.20
2022-08-24T01:12:10.320Z,5.82
2022-08-24T01:14:39.459Z,5.70
2022-08-24T01:17:25.423Z,5.97
2022-08-24T01:19:55.796Z,6.18
2022-08-24T01:22:35.532Z,6.03
2022-08-24T01:25:05.999Z,6.13
2022-08-24T01:27:35.254Z,6.07
2022-08-24T01:30:08.290Z,6.10
2022-08-24T01:32:38.815Z,6.40
2022-08-24T01:35:06.844Z,6.68
2022-08-24T01:37:34.501Z,6.05
2022-08-24T01:40:07.411Z,6.28
2022-08-24T01:42:35.056Z,6.25
2022-08-24T01:45:02.604Z,5.68
2022-08-24T01:47:30.144Z,7.05
2022-08-24T01:49:58.250Z,7.57
2022-08-24T01:52:38.841Z,7.15
2022-08-24T01:55:19.921Z,7.88
2022-08-24T01:57:50.295Z,6.80
2022-08-24T02:00:17.778Z,6.90
2022-08-24T02:02:45.747Z,7.32
2022-08-24T02:05:14.458Z,7.18
2022-08-24T02:07:45.851Z,8.23
2022-08-24T02:10:16.436Z,8.38
2022-08-24T02:12:45.669Z,10.32
2022-08-24T02:15:14.053Z,11.68
2022-08-24T02:17:41.639Z,12.13
2022-08-24T02:20:10.288Z,13.60
2022-08-24T02:22:37.716Z,17.70
2022-08-24T02:25:06.078Z,16.40
2022-08-24T02:27:37.107Z,18.42
2022-08-24T02:30:05.892Z,19.75
2022-08-24T02:32:33.421Z,19.17
2022-08-24T02:35:00.802Z,20.50
2022-08-24T02:37:28.487Z,21.27
2022-08-24T02:39:55.995Z,21.83
2022-08-24T02:42:25.537Z,22.17
2022-08-24T02:44:55.138Z,25.38
2022-08-24T02:47:22.595Z,23.80
2022-08-24T02:50:07.669Z,24.93
2022-08-24T02:52:35.807Z,25.50
2022-08-24T02:55:03.200Z,24.00
2022-08-24T02:57:30.656Z,27.52
2022-08-24T02:59:59.682Z,29.08
2022-08-24T03:02:27.851Z,28.92
2022-08-24T03:04:55.510Z,32.10
2022-08-24T03:07:22.936Z,29.08
2022-08-24T03:09:50.356Z,29.48
2022-08-24T03:12:18.254Z,30.63
2022-08-24T03:14:45.782Z,29.02
2022-08-24T03:17:14.667Z,30.08
2022-08-24T03:19:42.518Z,29.70
2022-08-24T03:22:10.389Z,28.98
2022-08-24T03:24:37.830Z,29.90
2022-08-24T03:27:05.275Z,29.77
2022-08-24T03:29:35.084Z,30.33
2022-08-24T03:32:04.941Z,28.92
2022-08-24T03:34:33.808Z,30.45
2022-08-24T03:37:01.325Z,28.90
2022-08-24T03:39:29.063Z,29.42
2022-08-24T03:41:57.605Z,31.23
2022-08-24T03:44:26.477Z,30.02
2022-08-24T03:46:55.159Z,30.23
2022-08-24T03:49:24.541Z,30.13
2022-08-24T03:51:53.264Z,30.83
2022-08-24T03:54:23.427Z,27.63
2022-08-24T03:56:51.279Z,29.90
2022-08-24T03:59:20.134Z,28.52
2022-08-24T04:01:49.666Z,28.90
2022-08-24T04:04:17.058Z,30.63
2022-08-24T04:06:46.794Z,32.25
2022-08-24T04:09:15.941Z,29.30
2022-08-24T04:11:47.042Z,28.55
2022-08-24T04:14:27.516Z,30.10
2022-08-24T04:17:04.435Z,29.85
2022-08-24T04:19:36.126Z,30.98
2022-08-24T04:22:04.119Z,30.35
2022-08-24T04:24:32.995Z,27.38
2022-08-24T04:27:00.435Z,27.83
2022-08-24T04:29:27.944Z,28.88
2022-08-24T04:31:55.900Z,28.17
2022-08-24T04:34:24.042Z,28.52
2022-08-24T04:36:51.858Z,30.58
2022-08-24T04:39:19.509Z,29.27
2022-08-24T04:42:13.096Z,29.80
2022-08-24T04:44:42.190Z,27.65
2022-08-24T04:47:09.921Z,28.90
2022-08-24T04:49:39.145Z,29.52
2022-08-24T04:52:08.100Z,29.38
2022-08-24T04:54:35.586Z,27.48
2022-08-24T04:57:12.502Z,27.98
2022-08-24T04:59:43.886Z,30.08
2022-08-24T05:02:11.424Z,29.15
2022-08-24T05:04:38.939Z,27.95
2022-08-24T05:07:08.252Z,29.77
2022-08-24T05:09:35.744Z,30.05
2022-08-24T05:12:03.601Z,29.05
2022-08-24T05:14:36.041Z,30.92
2022-08-24T05:17:05.233Z,30.92
2022-08-24T05:19:36.699Z,28.77
2022-08-24T05:22:05.340Z,31.67
2022-08-24T05:24:32.782Z,30.33
2022-08-24T05:27:00.640Z,29.98
2022-08-24T05:29:28.366Z,29.42
2022-08-24T05:31:55.879Z,26.67
2022-08-24T05:34:24.913Z,28.33
2022-08-24T05:36:52.674Z,26.48
2022-08-24T05:39:42.591Z,26.75
2022-08-24T05:42:10.367Z,25.83
2022-08-24T05:44:45.733Z,28.17
2022-08-24T05:47:13.202Z,25.58
2022-08-24T05:49:42.838Z,24.45
2022-08-24T05:52:11.087Z,28.15
2022-08-24T05:54:39.337Z,24.98
2022-08-24T05:57:06.925Z,27.17
2022-08-24T05:59:44.544Z,24.85
2022-08-24T06:02:16.408Z,26.02
2022-08-24T06:04:45.764Z,24.42
2022-08-24T06:07:14.150Z,23.90
2022-08-24T06:09:46.110Z,21.63
2022-08-24T06:12:15.160Z,23.00
2022-08-24T06:14:46.392Z,22.33
2022-08-24T06:17:14.447Z,18.98
2022-08-24T06:19:43.734Z,17.55
2022-08-24T06:22:12.483Z,17.42
2022-08-24T06:24:59.257Z,17.00
2022-08-24T06:27:27.431Z,15.68
2022-08-24T06:29:58.348Z,16.13
2022-08-24T06:32:54.496Z,16.25
2022-08-24T06:35:43.592Z,14.50
2022-08-24T06:38:15.492Z,16.30
2022-08-24T06:40:45.488Z,15.55
2022-08-24T06:43:13.878Z,15.70
2022-08-24T06:45:49.042Z,14.18
2022-08-24T06:48:19.316Z,14.32
2022-08-24T06:50:48.047Z,13.57
2022-08-24T06:53:17.750Z,15.73
2022-08-24T06:55:47.889Z,14.07
2022-08-24T06:58:15.566Z,14.35
2022-08-24T07:00:43.055Z,14.20
2022-08-24T07:03:11.292Z,13.45
2022-08-24T07:05:51.476Z,13.43
2022-08-24T07:08:32.976Z,13.00
2022-08-24T07:11:00.685Z,11.82
2022-08-24T07:13:29.489Z,10.90
2022-08-24T07:15:57.066Z,11.80
2022-08-24T07:18:24.624Z,10.25
2022-08-24T07:20:54.740Z,10.50
2022-08-24T07:23:41.819Z,11.00
2022-08-24T07:26:21.900Z,10.15
2022-08-24T07:28:50.656Z,8.70
2022-08-24T07:31:18.402Z,10.40
2022-08-24T07:33:53.885Z,12.27
2022-08-24T07:36:22.570Z,13.25
2022-08-24T07:38:52.067Z,12.38
2022-08-24T07:41:56.499Z,10.70
2022-08-24T07:44:15.500Z,10.35
2022-08-24T07:46:43.277Z,10.07
2022-08-24T07:49:33.150Z,12.90
2022-08-24T07:52:01.887Z,13.40
2022-08-24T07:54:29.661Z,12.88
2022-08-24T07:57:02.120Z,12.70
2022-08-24T07:59:29.558Z,11.45
2022-08-24T08:01:57.695Z,11.65
2022-08-24T08:04:26.015Z,11.10
2022-08-24T08:09:27.025Z,8.70
2022-08-24T08:11:54.717Z,10.23
2022-08-24T08:14:23.659Z,8.23
2022-08-24T08:16:51.446Z,8.30
2022-08-24T08:19:18.896Z,8.80
2022-08-24T08:22:06.695Z,8.55
2022-08-24T08:24:45.248Z,9.13
2022-08-24T08:27:16.837Z,10.95
2022-08-24T08:29:45.958Z,9.82
2022-08-24T08:32:16.801Z,10.88
2022-08-24T08:34:46.044Z,10.05
2022-08-24T08:37:15.381Z,8.77
2022-08-24T08:39:43.230Z,11.30
2022-08-24T08:42:38.425Z,9.55
2022-08-24T08:45:23.414Z,10.52
2022-08-24T08:48:14.722Z,10.43
2022-08-24T08:51:09.892Z,11.68
2022-08-24T08:54:11.021Z,10.57
2022-08-24T08:56:45.590Z,10.85
2022-08-24T08:59:19.061Z,10.88
2022-08-24T09:02:04.030Z,10.27
2022-08-24T09:04:55.967Z,11.32
2022-08-24T09:07:35.921Z,11.30
2022-08-24T09:10:40.552Z,12.68
2022-08-24T09:13:18.528Z,11.73
2022-08-24T09:16:10.440Z,11.25
2022-08-24T09:18:50.708Z,10.02
2022-08-24T09:21:32.583Z,9.75
2022-08-24T09:24:05.007Z,10.88
2022-08-24T09:26:41.432Z,10.68
2022-08-24T09:29:11.697Z,10.02
2022-08-24T09:31:46.368Z,11.55
2022-08-24T09:34:20.376Z,9.77
2022-08-24T09:36:54.071Z,9.80
2022-08-24T09:39:47.039Z,9.77
2022-08-24T09:42:42.866Z,9.65
2022-08-24T09:45:23.258Z,8.55
2022-08-24T09:48:09.459Z,8.63
2022-08-24T09:51:12.341Z,9.07
2022-08-24T09:53:53.624Z,7.97
2022-08-24T09:56:32.752Z,8.48
2022-08-24T09:59:11.510Z,8.10
2022-08-24T10:01:44.781Z,9.68
2022-08-24T10:04:20.821Z,9.38
2022-08-24T10:07:04.921Z,8.32
2022-08-24T10:09:46.360Z,9.50
2022-08-24T10:12:20.800Z,7.70
2022-08-24T10:14:54.313Z,7.57
2022-08-24T10:17:34.297Z,7.03
2022-08-24T10:20:09.259Z,7.07
2022-08-24T10:22:54.132Z,8.70
2022-08-24T10:25:31.780Z,7.00
2022-08-24T10:28:08.133Z,6.55
2022-08-24T10:30:51.658Z,7.63
2022-08-24T10:33:23.527Z,6.95
2022-08-24T10:36:16.562Z,6.75
2022-08-24T10:39:08.991Z,6.28
2022-08-24T10:42:11.702Z,6.53
2022-08-24T10:44:46.551Z,8.43
2022-08-24T10:47:21.634Z,7.95
2022-08-24T10:50:07.699Z,7.47
2022-08-24T10:52:58.731Z,7.63
2022-08-24T10:55:30.310Z,7.05
2022-08-24T10:58:10.405Z,7.70
2022-08-24T11:00:38.424Z,7.88
2022-08-24T11:03:11.957Z,6.50
2022-08-24T11:05:43.824Z,6.68
2022-08-24T11:08:18.455Z,6.80
2022-08-24T11:10:48.429Z,7.75
2022-08-24T11:13:27.487Z,7.80
2022-08-24T11:15:57.013Z,7.70
2022-08-24T11:18:24.886Z,7.03
2022-08-24T11:20:55.599Z,6.80
2022-08-24T11:23:28.350Z,7.10
2022-08-24T11:26:03.843Z,6.93
2022-08-24T11:28:35.035Z,8.43
2022-08-24T11:31:03.507Z,8.50
2022-08-24T11:33:33.380Z,7.97
2022-08-24T11:36:02.091Z,7.78
2022-08-24T11:38:31.867Z,7.45
2022-08-24T11:41:04.958Z,7.60
2022-08-24T11:43:45.990Z,6.07
2022-08-24T11:46:19.509Z,6.32
2022-08-24T11:48:57.390Z,6.32
2022-08-24T11:51:31.935Z,7.18
2022-08-24T11:54:05.016Z,5.82
2022-08-24T11:56:39.316Z,13.85
2022-08-24T11:59:13.680Z,6.13
2022-08-24T12:01:46.295Z,5.83
2022-08-24T12:04:39.053Z,8.70
2022-08-24T12:07:14.924Z,7.97
2022-08-24T12:10:00.068Z,7.75
2022-08-24T12:12:36.042Z,6.43
2022-08-24T12:15:07.996Z,7.15
2022-08-24T12:17:38.367Z,6.50
2022-08-24T12:20:12.708Z,7.00
2022-08-24T12:22:40.430Z,7.25
2022-08-24T12:25:29.720Z,7.63
2022-08-24T12:27:59.064Z,11.38
2022-08-24T12:30:27.475Z,7.65
2022-08-24T12:32:57.869Z,7.20
2022-08-24T12:35:29.102Z,7.32
2022-08-24T12:37:59.733Z,8.10
2022-08-24T12:40:30.701Z,8.00
2022-08-24T12:43:04.394Z,7.97
2022-08-24T12:45:31.776Z,8.13
2022-08-24T12:48:03.933Z,7.05
2022-08-24T12:50:36.147Z,8.70
2022-08-24T12:53:31.858Z,8.02
2022-08-24T12:56:20.483Z,7.13
2022-08-24T12:59:00.667Z,6.55
2022-08-24T13:01:33.617Z,9.48
2022-08-24T13:04:08.168Z,11.43
2022-08-24T13:06:42.593Z,25.40
2022-08-24T13:09:15.131Z,9.35
2022-08-24T13:11:42.817Z,8.13
2022-08-24T13:14:20.911Z,8.45
2022-08-24T13:16:52.229Z,7.60
2022-08-24T13:19:34.215Z,7.32
2022-08-24T13:22:47.934Z,7.30
2022-08-24T13:25:27.632Z,6.35
2022-08-24T13:28:27.635Z,6.63
2022-08-24T13:31:20.424Z,6.82
2022-08-24T13:33:50.212Z,7.00
2022-08-24T13:36:53.590Z,6.53
2022-08-24T13:39:40.681Z,7.90
2022-08-24T13:42:15.757Z,7.25
2022-08-24T13:45:02.286Z,7.28
2022-08-24T13:47:34.906Z,6.82
2022-08-24T13:50:09.227Z,7.00
2022-08-24T13:52:55.092Z,6.43
2022-08-24T13:55:33.728Z,6.60
2022-08-24T13:58:11.775Z,6.63
2022-08-24T14:00:44.193Z,6.35
2022-08-24T14:03:22.815Z,6.57
2022-08-24T14:05:52.144Z,6.90
2022-08-24T14:08:31.914Z,6.07
2022-08-24T14:11:10.305Z,6.40
2022-08-24T14:13:49.454Z,6.55
2022-08-24T14:16:50.635Z,6.78
2022-08-24T14:19:24.473Z,6.53
2022-08-24T14:21:55.439Z,5.93
2022-08-24T14:24:27.075Z,6.43
2022-08-24T14:27:14.734Z,6.57
2022-08-24T14:29:48.797Z,6.72
2022-08-24T14:32:45.824Z,6.28
2022-08-24T14:35:27.619Z,6.90
2022-08-24T14:38:10.577Z,6.35
2022-08-24T14:40:51.789Z,6.03
2022-08-24T14:43:30.983Z,6.18
2022-08-24T14:46:04.500Z,5.68
2022-08-24T14:48:38.395Z,6.40
2022-08-24T14:51:11.929Z,5.97
2022-08-24T14:56:21.983Z,6.07
2022-08-24T14:59:01.560Z,5.53
2022-08-24T15:01:41.734Z,5.53
2022-08-24T15:04:30.730Z,6.38
2022-08-24T15:07:27.934Z,5.88
2022-08-24T15:09:56.828Z,6.32
2022-08-24T15:12:33.247Z,6.30
2022-08-24T15:15:05.943Z,5.95
2022-08-24T15:17:44.185Z,5.78
2022-08-24T15:20:19.628Z,6.07
2022-08-24T15:22:51.422Z,6.25
2022-08-24T15:25:30.600Z,5.95
2022-08-24T15:28:00.508Z,6.30
2022-08-24T15:30:32.908Z,6.60
2022-08-24T15:33:06.250Z,6.03
2022-08-24T15:35:36.176Z,6.18
2022-08-24T15:38:18.194Z,5.75
2022-08-24T15:40:46.568Z,5.40
2022-08-24T15:43:14.291Z,5.78
2022-08-24T15:45:49.066Z,6.22
2022-08-24T15:48:18.763Z,6.30
2022-08-24T15:50:48.246Z,6.22
2022-08-24T15:53:30.693Z,6.18
2022-08-24T15:56:01.352Z,8.05
2022-08-24T15:58:33.547Z,5.93
2022-08-24T16:01:41.931Z,6.13
2022-08-24T16:04:10.914Z,6.30
2022-08-24T16:06:45.041Z,5.80
2022-08-24T16:09:33.514Z,6.00
2022-08-24T16:12:04.429Z,5.95
2022-08-24T16:14:33.686Z,5.63
2022-08-24T16:17:20.192Z,5.35
2022-08-24T16:19:51.418Z,5.40
2022-08-24T16:22:27.297Z,5.38
2022-08-24T16:25:10.523Z,5.93
2022-08-24T16:27:58.087Z,5.47
2022-08-24T16:30:38.572Z,5.32
2022-08-24T16:33:07.760Z,5.28
2022-08-24T16:35:35.705Z,5.95
2022-08-24T16:38:06.483Z,5.20
2022-08-24T16:40:35.190Z,6.18
2022-08-24T16:43:03.097Z,5.68
2022-08-24T16:45:35.333Z,5.90
2022-08-24T16:48:03.721Z,5.90
2022-08-24T16:50:32.547Z,5.30
2022-08-24T16:52:59.923Z,5.40
2022-08-24T16:55:28.339Z,5.65
2022-08-24T16:57:55.926Z,5.75
2022-08-24T17:00:23.605Z,5.63
2022-08-24T17:02:50.991Z,5.50
2022-08-24T17:05:18.718Z,5.90
2022-08-24T17:07:47.711Z,5.30
2022-08-24T17:10:16.798Z,6.32
2022-08-24T17:12:44.167Z,5.25
2022-08-24T17:15:12.824Z,6.35
2022-08-24T17:17:40.619Z,6.13
2022-08-24T17:20:11.055Z,5.65
2022-08-24T17:22:39.173Z,5.55
2022-08-24T17:25:08.296Z,5.90
2022-08-24T17:27:35.723Z,6.07
2022-08-24T17:30:03.831Z,6.45
2022-08-24T17:32:31.321Z,5.53
2022-08-24T17:34:58.758Z,5.80
2022-08-24T17:37:26.289Z,5.68
2022-08-24T17:39:57.091Z,6.03
2022-08-24T17:42:49.581Z,5.60
2022-08-24T17:45:13.419Z,5.88
2022-08-24T17:47:41.352Z,5.82
2022-08-24T17:50:10.200Z,6.30
2022-08-24T17:52:38.033Z,5.78
2022-08-24T17:55:06.030Z,6.05
2022-08-24T17:57:34.872Z,6.43
2022-08-24T18:00:02.371Z,5.72
2022-08-24T18:02:39.722Z,6.20
2022-08-24T18:05:08.457Z,6.22
2022-08-24T18:07:52.558Z,6.38
2022-08-24T18:10:22.295Z,5.70
2022-08-24T18:12:51.196Z,6.28
2022-08-24T18:15:18.742Z,6.10
2022-08-24T18:17:48.643Z,5.95
2022-08-24T18:20:17.669Z,6.43
2022-08-24T18:22:47.032Z,6.22
2022-08-24T18:25:16.222Z,6.78
2022-08-24T18:27:45.824Z,6.72
2022-08-24T18:30:19.631Z,6.70
2022-08-24T18:32:49.838Z,6.07
2022-08-24T18:35:17.530Z,6.10
2022-08-24T18:37:45.033Z,6.03
2022-08-24T18:40:20.371Z,6.70
2022-08-24T18:42:50.626Z,6.30
2022-08-24T18:45:19.600Z,6.25
2022-08-24T18:47:53.436Z,6.18
2022-08-24T18:50:21.439Z,7.18
2022-08-24T18:52:48.942Z,6.47
2022-08-24T18:55:16.445Z,6.38
2022-08-24T18:57:43.839Z,6.90
2022-08-24T19:00:12.723Z,6.10
2022-08-24T19:02:41.680Z,6.75
2022-08-24T19:05:11.588Z,6.60
2022-08-24T19:07:41.788Z,6.60
2022-08-24T19:10:11.200Z,6.45
2022-08-24T19:12:42.490Z,12.20
2022-08-24T19:15:34.600Z,33.65
2022-08-24T19:18:03.001Z,7.05
2022-08-24T19:20:32.679Z,6.20
2022-08-24T19:23:01.505Z,7.22
2022-08-24T19:25:29.119Z,6.65
2022-08-24T19:27:56.605Z,7.38
2022-08-24T19:30:24.003Z,6.82
2022-08-24T19:32:51.588Z,6.85
2022-08-24T19:35:21.059Z,6.45
2022-08-24T19:37:49.568Z,6.45
2022-08-24T19:40:17.184Z,7.25
2022-08-24T19:42:44.804Z,7.18
2022-08-24T19:45:31.124Z,7.30
2022-08-24T19:47:58.516Z,6.97
2022-08-24T19:50:28.508Z,6.90
2022-08-24T19:52:57.497Z,6.55
2022-08-24T19:55:25.190Z,8.00
2022-08-24T19:57:55.151Z,7.10
2022-08-24T20:00:27.197Z,6.95
2022-08-24T20:02:56.138Z,6.82
2022-08-24T20:05:25.303Z,6.55
2022-08-24T20:07:54.011Z,7.15
2022-08-24T20:10:23.315Z,27.63
2022-08-24T20:12:51.105Z,14.30
2022-08-24T20:15:18.871Z,7.38
2022-08-24T20:17:46.476Z,7.28
2022-08-24T20:20:17.276Z,7.05
2022-08-24T20:22:44.770Z,7.03
2022-08-24T20:25:14.357Z,7.57
2022-08-24T20:27:42.216Z,6.72
2022-08-24T20:30:10.899Z,7.00
2022-08-24T20:32:38.284Z,7.88
2022-08-24T20:35:06.631Z,7.50
2022-08-24T20:37:34.748Z,6.65
2022-08-24T20:40:02.969Z,6.93
2022-08-24T20:42:32.192Z,7.35
2022-08-24T20:45:00.463Z,7.05
2022-08-24T20:47:28.148Z,6.70
2022-08-24T20:49:55.645Z,7.53
2022-08-24T20:52:23.148Z,7.18
2022-08-24T20:54:50.547Z,7.00
2022-08-24T20:57:20.305Z,6.93
2022-08-24T20:59:48.987Z,6.90
2022-08-24T21:02:16.411Z,7.07
2022-08-24T21:04:43.776Z,7.35
2022-08-24T21:07:12.429Z,7.50
2022-08-24T21:09:40.518Z,6.78
2022-08-24T21:12:08.907Z,6.75
2022-08-24T21:14:36.347Z,7.35
2022-08-24T21:17:06.679Z,7.65
2022-08-24T21:19:34.336Z,7.00
2022-08-24T21:22:02.008Z,7.72
2022-08-24T21:24:29.471Z,7.05
2022-08-24T21:26:57.023Z,6.85
2022-08-24T21:29:24.416Z,7.30
2022-08-24T21:32:09.508Z,7.25
2022-08-24T21:34:41.231Z,7.05
2022-08-24T21:37:09.339Z,6.97
2022-08-24T21:39:36.914Z,6.97
2022-08-24T21:42:04.602Z,6.50
2022-08-24T21:44:32.177Z,7.32
2022-08-24T21:47:00.408Z,7.30
2022-08-24T21:49:28.140Z,7.53
2022-08-24T21:51:56.835Z,7.72
2022-08-24T21:54:24.228Z,6.95
2022-08-24T21:56:51.652Z,7.03
2022-08-24T21:59:19.356Z,7.20
2022-08-24T22:01:46.915Z,7.70
2022-08-24T22:04:15.707Z,7.32
2022-08-24T22:06:43.075Z,7.63
2022-08-24T22:09:11.808Z,7.68
2022-08-24T22:11:39.552Z,7.30
2022-08-24T22:14:06.948Z,6.78
2022-08-24T22:16:37.070Z,7.50
2022-08-24T22:19:04.915Z,7.50
2022-08-24T22:21:34.790Z,7.40
2022-08-24T22:24:04.397Z,7.28
2022-08-24T22:26:33.502Z,7.22
2022-08-24T22:29:01.414Z,7.15
2022-08-24T22:31:31.091Z,7.40
2022-08-24T22:34:00.565Z,7.15
2022-08-24T22:36:29.249Z,7.38
2022-08-24T22:38:57.329Z,7.30
2022-08-24T22:41:24.752Z,7.97
2022-08-24T22:44:13.097Z,7.75
2022-08-24T22:46:40.859Z,7.28
2022-08-24T22:49:08.993Z,7.72
2022-08-24T22:51:36.466Z,7.60
2022-08-24T22:54:04.293Z,7.63
2022-08-24T22:56:33.792Z,7.55
2022-08-24T22:59:04.945Z,7.35
2022-08-24T23:01:34.968Z,7.28
2022-08-24T23:04:05.262Z,8.23
2022-08-24T23:06:32.860Z,7.07
2022-08-24T23:09:00.624Z,7.60
2022-08-24T23:11:28.242Z,7.57
2022-08-24T23:13:57.339Z,7.20
2022-08-24T23:16:27.332Z,7.47
2022-08-24T23:19:12.449Z,7.20
2022-08-24T23:21:39.920Z,7.13
2022-08-24T23:24:09.513Z,7.22
2022-08-24T23:26:37.169Z,7.68
2022-08-24T23:29:04.711Z,7.80
2022-08-24T23:31:33.654Z,7.78
2022-08-24T23:34:01.084Z,8.05
2022-08-24T23:36:29.011Z,8.10
2022-08-24T23:38:58.684Z,7.43
2022-08-24T23:41:28.072Z,8.02
2022-08-24T23:43:55.857Z,7.85
2022-08-24T23:46:23.953Z,8.25
2022-08-24T23:48:55.878Z,8.00
2022-08-24T23:51:24.852Z,8.00
2022-08-24T23:53:52.372Z,7.90
2022-08-24T23:56:22.026Z,8.10
2022-08-24T23:58:49.986Z,8.68
